Royal Prince — WCX8037 — position and weather

sailwx.info

Track history (hours):
 
Tides and Currents Weather Stations Pressure Air Temp Water Temp Dewpoint Dewpoint Depression Visibility Wind Speed Wind Dir Waves Ship Positions

Royal Prince

Owner: Golden Gate Scenic Steamship Corp, SAN FRANCISCO, CA. More information available from US FCC via Universal Licensing System and Coast Guard Vessel Documentation Center.

Last reported at 2015-Jul-30 03:33 UTC. Time now 2015-Jul-30 12:03 UTC.
Position N 37°49' W 122°28'.

Length 28 m; draft 2.3 m.

Type: Passenger vessel. MMSI: 366975760.

Date/timePositionNaut miles runAvg speedWind from/ knotsBaromVisibWave heightAir tempDewpointWater temp
2015-Jul-30 03:33N 37°49' W 122°28'3 3.2
2015-Jul-30 02:33N 37°51' W 122°25'2 2.0
2015-Jul-30 01:33N 37°49' W 122°25'0 0.0
2015-Jul-30 00:34N 37°49' W 122°25'2 2.0
2015-Jul-29 23:33N 37°49' W 122°27'4 3.7
2015-Jul-29 22:33N 37°48' W 122°23'2 2.3
2015-Jul-29 21:33N 37°49' W 122°26'2 1.6
2015-Jul-29 20:33N 37°49' W 122°24'1 1.0
2015-Jul-29 19:33N 37°49' W 122°25'0 0.0
2015-Jul-29 04:04N 37°49' W 122°25'3 5.2
2015-Jul-29 03:34N 37°49' W 122°28'3 3.1
2015-Jul-29 02:33N 37°51' W 122°25'2 2.0
2015-Jul-29 01:33N 37°49' W 122°25'0 0.0
2015-Jul-29 00:34N 37°49' W 122°25'2 2.5
2015-Jul-28 23:34N 37°50' W 122°28'3 2.8
2015-Jul-28 22:34N 37°49' W 122°24'3 2.5
2015-Jul-28 21:33N 37°49' W 122°28'2 2.3
2015-Jul-28 20:34N 37°49' W 122°25'0 0.4
2015-Jul-28 19:33N 37°49' W 122°25'0 0.0
2015-Jul-28 04:10N 37°49' W 122°25'3 4.8
2015-Jul-28 03:33N 37°49' W 122°28'3 3.3
2015-Jul-28 02:33N 37°51' W 122°25'2 2.1
2015-Jul-28 01:34N 37°49' W 122°25'0 0.0
2015-Jul-28 00:34N 37°49' W 122°25'3 3.2
2015-Jul-27 23:33N 37°49' W 122°29'5 4.9
2015-Jul-27 22:33N 37°48' W 122°23'2 2.1
2015-Jul-27 21:33N 37°49' W 122°25'1 1.3
2015-Jul-27 20:33N 37°49' W 122°24'1 1.1
2015-Jul-27 19:33N 37°49' W 122°25'0 0.0
2015-Jul-27 04:05N 37°49' W 122°25'2 4.8
2015-Jul-27 03:34N 37°49' W 122°28'3 3.1
2015-Jul-27 02:34N 37°51' W 122°25'2 2.3
2015-Jul-27 01:34N 37°49' W 122°25'0 0.0
2015-Jul-27 00:34N 37°49' W 122°25'3 3.1
2015-Jul-26 23:34N 37°49' W 122°29'4 3.8
2015-Jul-26 22:34N 37°49' W 122°24'2 2.4
2015-Jul-26 21:33N 37°49' W 122°27'3 3.1
2015-Jul-26 20:33N 37°48' W 122°23'1 1.4
2015-Jul-26 19:34N 37°49' W 122°25'0 0.0
2015-Jul-26 02:33N 37°49' W 122°25'2 1.7
2015-Jul-26 01:33N 37°49' W 122°27'1 1.5
2015-Jul-26 00:33N 37°49' W 122°29'3 2.9
2015-Jul-25 23:33N 37°50' W 122°25'1 1.0
2015-Jul-25 22:33N 37°49' W 122°25'0 0.0
2015-Jul-25 21:33N 37°49' W 122°25'3 2.8
2015-Jul-25 20:33N 37°49' W 122°28'3 2.8
2015-Jul-25 19:33N 37°49' W 122°25'2 1.5
2015-Jul-25 18:33N 37°49' W 122°27'1 0.7
2015-Jul-25 17:33N 37°49' W 122°27'2 2.0
2015-Jul-25 16:33N 37°49' W 122°25'0 0.0
2015-Jul-25 02:33N 37°49' W 122°25'0 0.0
2015-Jul-25 01:33N 37°49' W 122°25'1 1.5
2015-Jul-25 00:33N 37°49' W 122°27'1 0.8
2015-Jul-24 23:33N 37°50' W 122°27'2 2.3
2015-Jul-24 22:33N 37°49' W 122°24'1 0.6
2015-Jul-24 21:33N 37°49' W 122°25'2 1.8
2015-Jul-24 20:33N 37°49' W 122°27'2 1.8
2015-Jul-24 19:33N 37°49' W 122°25'1 1.4
2015-Jul-24 18:33N 37°49' W 122°27'1 1.2
2015-Jul-24 17:33N 37°49' W 122°28'2 2.5
2015-Jul-24 16:33N 37°49' W 122°25'0 0.0
2015-Jul-24 04:27N 37°49' W 122°25'2 2.3
2015-Jul-24 03:33N 37°49' W 122°27'4 3.7
2015-Jul-24 02:33N 37°52' W 122°25'3 3.4
2015-Jul-24 01:33N 37°49' W 122°25'0 0.0
2015-Jul-24 00:33N 37°49' W 122°25'3 2.5
2015-Jul-23 23:33N 37°49' W 122°28'3 3.2
2015-Jul-23 22:33N 37°49' W 122°24'2 2.1
2015-Jul-23 21:33N 37°49' W 122°27'3 3.4
2015-Jul-23 20:33N 37°47' W 122°23'2 2.0
2015-Jul-23 19:33N 37°49' W 122°25'0 0.0
2015-Jul-23 02:32N 37°49' W 122°25'2 2.3
2015-Jul-23 01:33N 37°49' W 122°28'1 1.0
2015-Jul-23 00:33N 37°50' W 122°27'2 2.1
2015-Jul-22 23:33N 37°49' W 122°24'1 0.7
2015-Jul-22 22:33N 37°49' W 122°25'0 0.0
2015-Jul-22 21:33N 37°49' W 122°25'2 2.2
2015-Jul-22 20:33N 37°49' W 122°28'2 2.2
2015-Jul-22 19:33N 37°49' W 122°25'2 1.6
2015-Jul-22 18:33N 37°49' W 122°27'1 1.1
2015-Jul-22 17:33N 37°49' W 122°28'0 0.0
2015-Jul-22 03:33N 37°49' W 122°28'3 2.8
2015-Jul-22 02:33N 37°51' W 122°25'2 2.0
2015-Jul-22 01:33N 37°49' W 122°25'0 0.0
2015-Jul-22 00:33N 37°49' W 122°25'2 2.2
2015-Jul-21 23:33N 37°50' W 122°27'3 3.0
2015-Jul-21 22:33N 37°48' W 122°24'2 2.3
2015-Jul-21 21:33N 37°49' W 122°27'3 3.3
2015-Jul-21 20:33N 37°48' W 122°23'2 2.0
2015-Jul-21 19:33N 37°49' W 122°25'3 0.2
2015-Jul-21 03:33N 37°49' W 122°28'3 2.8
2015-Jul-21 02:33N 37°50' W 122°25'2 1.8
2015-Jul-21 01:33N 37°49' W 122°25'0 0.1
2015-Jul-21 00:33N 37°49' W 122°25'3 2.8
2015-Jul-20 23:33N 37°49' W 122°28'5 4.6
2015-Jul-20 22:33N 37°47' W 122°23'2 2.2
2015-Jul-20 21:33N 37°49' W 122°25'2 1.5
2015-Jul-20 20:33N 37°49' W 122°23'1 1.2
2015-Jul-20 19:33N 37°49' W 122°25'0 0.0
2015-Jul-20 04:29N 37°49' W 122°25'3 3.4
2015-Jul-20 03:33N 37°49' W 122°29'  
Track history (hours):
 
Tides and Currents Weather Stations Pressure Air Temp Water Temp Dewpoint Dewpoint Depression Visibility Wind Speed Wind Dir Waves Ship Positions

Royal Prince

Owner: Golden Gate Scenic Steamship Corp, SAN FRANCISCO, CA. More information available from US FCC via Universal Licensing System and Coast Guard Vessel Documentation Center.

Last reported at 2015-Jul-30 03:33 UTC. Time now 2015-Jul-30 12:03 UTC.
Position N 37°49' W 122°28'.

Length 28 m; draft 2.3 m.

Type: Passenger vessel. MMSI: 366975760.

Date/timePositionNaut miles runAvg speedWind from/ knotsBaromVisibWave heightAir tempDewpointWater temp
2015-Jul-30 03:33N 37°49' W 122°28'3 3.2
2015-Jul-30 02:33N 37°51' W 122°25'2 2.0
2015-Jul-30 01:33N 37°49' W 122°25'0 0.0
2015-Jul-30 00:34N 37°49' W 122°25'2 2.0
2015-Jul-29 23:33N 37°49' W 122°27'4 3.7
2015-Jul-29 22:33N 37°48' W 122°23'2 2.3
2015-Jul-29 21:33N 37°49' W 122°26'2 1.6
2015-Jul-29 20:33N 37°49' W 122°24'1 1.0
2015-Jul-29 19:33N 37°49' W 122°25'0 0.0
2015-Jul-29 04:04N 37°49' W 122°25'3 5.2
2015-Jul-29 03:34N 37°49' W 122°28'3 3.1
2015-Jul-29 02:33N 37°51' W 122°25'2 2.0
2015-Jul-29 01:33N 37°49' W 122°25'0 0.0
2015-Jul-29 00:34N 37°49' W 122°25'2 2.5
2015-Jul-28 23:34N 37°50' W 122°28'3 2.8
2015-Jul-28 22:34N 37°49' W 122°24'3 2.5
2015-Jul-28 21:33N 37°49' W 122°28'2 2.3
2015-Jul-28 20:34N 37°49' W 122°25'0 0.4
2015-Jul-28 19:33N 37°49' W 122°25'0 0.0
2015-Jul-28 04:10N 37°49' W 122°25'3 4.8
2015-Jul-28 03:33N 37°49' W 122°28'3 3.3
2015-Jul-28 02:33N 37°51' W 122°25'2 2.1
2015-Jul-28 01:34N 37°49' W 122°25'0 0.0
2015-Jul-28 00:34N 37°49' W 122°25'3 3.2
2015-Jul-27 23:33N 37°49' W 122°29'5 4.9
2015-Jul-27 22:33N 37°48' W 122°23'2 2.1
2015-Jul-27 21:33N 37°49' W 122°25'1 1.3
2015-Jul-27 20:33N 37°49' W 122°24'1 1.1
2015-Jul-27 19:33N 37°49' W 122°25'0 0.0
2015-Jul-27 04:05N 37°49' W 122°25'2 4.8
2015-Jul-27 03:34N 37°49' W 122°28'3 3.1
2015-Jul-27 02:34N 37°51' W 122°25'2 2.3
2015-Jul-27 01:34N 37°49' W 122°25'0 0.0
2015-Jul-27 00:34N 37°49' W 122°25'3 3.1
2015-Jul-26 23:34N 37°49' W 122°29'4 3.8
2015-Jul-26 22:34N 37°49' W 122°24'2 2.4
2015-Jul-26 21:33N 37°49' W 122°27'3 3.1
2015-Jul-26 20:33N 37°48' W 122°23'1 1.4
2015-Jul-26 19:34N 37°49' W 122°25'0 0.0
2015-Jul-26 02:33N 37°49' W 122°25'2 1.7
2015-Jul-26 01:33N 37°49' W 122°27'1 1.5
2015-Jul-26 00:33N 37°49' W 122°29'3 2.9
2015-Jul-25 23:33N 37°50' W 122°25'1 1.0
2015-Jul-25 22:33N 37°49' W 122°25'0 0.0
2015-Jul-25 21:33N 37°49' W 122°25'3 2.8
2015-Jul-25 20:33N 37°49' W 122°28'3 2.8
2015-Jul-25 19:33N 37°49' W 122°25'2 1.5
2015-Jul-25 18:33N 37°49' W 122°27'1 0.7
2015-Jul-25 17:33N 37°49' W 122°27'2 2.0
2015-Jul-25 16:33N 37°49' W 122°25'0 0.0
2015-Jul-25 02:33N 37°49' W 122°25'0 0.0
2015-Jul-25 01:33N 37°49' W 122°25'1 1.5
2015-Jul-25 00:33N 37°49' W 122°27'1 0.8
2015-Jul-24 23:33N 37°50' W 122°27'2 2.3
2015-Jul-24 22:33N 37°49' W 122°24'1 0.6
2015-Jul-24 21:33N 37°49' W 122°25'2 1.8
2015-Jul-24 20:33N 37°49' W 122°27'2 1.8
2015-Jul-24 19:33N 37°49' W 122°25'1 1.4
2015-Jul-24 18:33N 37°49' W 122°27'1 1.2
2015-Jul-24 17:33N 37°49' W 122°28'2 2.5
2015-Jul-24 16:33N 37°49' W 122°25'0 0.0
2015-Jul-24 04:27N 37°49' W 122°25'2 2.3
2015-Jul-24 03:33N 37°49' W 122°27'4 3.7
2015-Jul-24 02:33N 37°52' W 122°25'3 3.4
2015-Jul-24 01:33N 37°49' W 122°25'0 0.0
2015-Jul-24 00:33N 37°49' W 122°25'3 2.5
2015-Jul-23 23:33N 37°49' W 122°28'3 3.2
2015-Jul-23 22:33N 37°49' W 122°24'2 2.1
2015-Jul-23 21:33N 37°49' W 122°27'3 3.4
2015-Jul-23 20:33N 37°47' W 122°23'2 2.0
2015-Jul-23 19:33N 37°49' W 122°25'0 0.0
2015-Jul-23 02:32N 37°49' W 122°25'2 2.3
2015-Jul-23 01:33N 37°49' W 122°28'1 1.0
2015-Jul-23 00:33N 37°50' W 122°27'2 2.1
2015-Jul-22 23:33N 37°49' W 122°24'1 0.7
2015-Jul-22 22:33N 37°49' W 122°25'0 0.0
2015-Jul-22 21:33N 37°49' W 122°25'2 2.2
2015-Jul-22 20:33N 37°49' W 122°28'2 2.2
2015-Jul-22 19:33N 37°49' W 122°25'2 1.6
2015-Jul-22 18:33N 37°49' W 122°27'1 1.1
2015-Jul-22 17:33N 37°49' W 122°28'0 0.0
2015-Jul-22 03:33N 37°49' W 122°28'3 2.8
2015-Jul-22 02:33N 37°51' W 122°25'2 2.0
2015-Jul-22 01:33N 37°49' W 122°25'0 0.0
2015-Jul-22 00:33N 37°49' W 122°25'2 2.2
2015-Jul-21 23:33N 37°50' W 122°27'3 3.0
2015-Jul-21 22:33N 37°48' W 122°24'2 2.3
2015-Jul-21 21:33N 37°49' W 122°27'3 3.3
2015-Jul-21 20:33N 37°48' W 122°23'2 2.0
2015-Jul-21 19:33N 37°49' W 122°25'3 0.2
2015-Jul-21 03:33N 37°49' W 122°28'3 2.8
2015-Jul-21 02:33N 37°50' W 122°25'2 1.8
2015-Jul-21 01:33N 37°49' W 122°25'0 0.1
2015-Jul-21 00:33N 37°49' W 122°25'3 2.8
2015-Jul-20 23:33N 37°49' W 122°28'5 4.6
2015-Jul-20 22:33N 37°47' W 122°23'2 2.2
2015-Jul-20 21:33N 37°49' W 122°25'2 1.5
2015-Jul-20 20:33N 37°49' W 122°23'1 1.2
2015-Jul-20 19:33N 37°49' W 122°25'0 0.0
2015-Jul-20 04:29N 37°49' W 122°25'3 3.4
2015-Jul-20 03:33N 37°49' W 122°29'  

Dump ship's entire track history